You are listening to:
KCAE Gnd/Twr/App - Columbia, South Carolina, United States

KCAE 050056Z 11003KT 10SM SCT200 BKN250 05/M06 A3051 RMK AO2 SLP333 T00501056 $

If stream doesn't start automatically press the play button
If stream stops then reload player then press play